createdAt,value
2023-03-11T01:14:05.728Z,9.54
2023-03-11T01:19:10.058Z,9.35
2023-03-11T01:24:14.076Z,8.80
2023-03-11T01:29:19.522Z,8.48
2023-03-11T01:34:23.804Z,8.64
2023-03-11T01:39:27.903Z,8.82
2023-03-11T01:44:33.359Z,8.90
2023-03-11T01:49:42.026Z,8.96
2023-03-11T01:54:46.125Z,9.26
2023-03-11T01:59:56.762Z,9.21
2023-03-11T02:05:03.693Z,9.40
2023-03-11T02:10:09.095Z,9.17
2023-03-11T02:15:14.913Z,9.33
2023-03-11T02:20:36.815Z,9.40
2023-03-11T02:25:54.410Z,9.40
2023-03-11T02:31:00.392Z,9.62
2023-03-11T02:36:05.304Z,9.68
2023-03-11T02:41:10.108Z,9.64
2023-03-11T02:46:16.487Z,9.37
2023-03-11T02:51:20.807Z,9.53
2023-03-11T02:56:26.994Z,9.31
2023-03-11T03:01:32.737Z,9.02
2023-03-11T03:06:37.765Z,9.44
2023-03-11T03:11:42.173Z,9.11
2023-03-11T03:16:48.794Z,9.19
2023-03-11T03:21:55.869Z,8.84
2023-03-11T03:27:01.623Z,8.94
2023-03-11T03:32:08.221Z,8.96
2023-03-11T03:37:12.424Z,9.10
2023-03-11T03:42:16.814Z,9.15
2023-03-11T03:47:25.364Z,9.22
2023-03-11T03:52:30.773Z,8.86
2023-03-11T03:57:35.940Z,8.93
2023-03-11T04:02:42.641Z,9.31
2023-03-11T04:07:56.580Z,9.15
2023-03-11T04:13:00.584Z,9.02
2023-03-11T04:18:07.708Z,9.05
2023-03-11T04:23:13.066Z,8.80
2023-03-11T04:28:17.883Z,8.84
2023-03-11T04:33:24.272Z,8.93
2023-03-11T04:38:29.909Z,8.82
2023-03-11T04:43:34.855Z,8.86
2023-03-11T04:48:40.625Z,8.97
2023-03-11T04:53:45.652Z,8.96
2023-03-11T04:58:51.762Z,8.84
2023-03-11T05:03:58.514Z,8.90
2023-03-11T05:09:03.175Z,9.38
2023-03-11T05:14:09.028Z,9.26
2023-03-11T05:19:37.640Z,9.12
2023-03-11T05:24:48.378Z,8.77
2023-03-11T05:29:52.848Z,8.74
2023-03-11T05:34:59.952Z,9.10
2023-03-11T05:40:06.787Z,9.39
2023-03-11T05:45:13.899Z,9.57
2023-03-11T05:50:23.103Z,9.32
2023-03-11T05:55:28.579Z,9.22
2023-03-11T06:00:32.713Z,9.28
2023-03-11T06:05:47.540Z,9.34
2023-03-11T06:10:51.695Z,9.55
2023-03-11T06:15:57.900Z,9.48
2023-03-11T06:21:04.385Z,9.35
2023-03-11T06:26:14.267Z,9.30
2023-03-11T06:31:24.427Z,9.23
2023-03-11T06:36:29.849Z,9.40
2023-03-11T06:41:35.922Z,9.45
2023-03-11T06:46:41.757Z,9.57
2023-03-11T06:51:47.644Z,9.63
2023-03-11T06:56:53.392Z,9.57
2023-03-11T07:02:00.295Z,9.90
2023-03-11T07:07:05.854Z,10.14
2023-03-11T07:12:11.492Z,10.95
2023-03-11T07:17:16.866Z,11.31
2023-03-11T07:22:27.829Z,11.12
2023-03-11T07:27:31.818Z,10.89
2023-03-11T07:32:35.916Z,11.39
2023-03-11T07:37:41.477Z,11.86
2023-03-11T07:42:46.825Z,12.62
2023-03-11T07:47:51.623Z,12.77
2023-03-11T07:52:57.234Z,12.86
2023-03-11T07:58:02.119Z,12.02
2023-03-11T08:03:06.838Z,11.23
2023-03-11T08:08:13.001Z,10.90
2023-03-11T08:13:17.538Z,11.35
2023-03-11T08:18:22.548Z,11.23
2023-03-11T08:23:30.724Z,11.48
2023-03-11T08:28:35.143Z,11.97
2023-03-11T08:33:39.202Z,11.76
2023-03-11T08:38:46.471Z,11.81
2023-03-11T08:43:52.398Z,11.60
2023-03-11T08:49:01.365Z,11.07
2023-03-11T08:54:08.174Z,11.76
2023-03-11T08:59:12.257Z,12.73
2023-03-11T09:04:16.368Z,12.24
2023-03-11T09:09:22.370Z,12.00
2023-03-11T09:14:28.166Z,12.21
2023-03-11T09:19:32.219Z,11.93
2023-03-11T09:24:37.839Z,12.17
2023-03-11T09:29:42.204Z,11.76
2023-03-11T09:34:46.279Z,11.59
2023-03-11T09:39:51.881Z,11.76
2023-03-11T09:45:01.985Z,12.22
2023-03-11T09:50:20.224Z,11.97
2023-03-11T09:55:39.994Z,12.64
2023-03-11T10:00:43.948Z,13.05
2023-03-11T10:05:48.307Z,12.60
2023-03-11T10:11:03.060Z,12.51
2023-03-11T10:16:16.208Z,13.32
2023-03-11T10:21:36.279Z,13.02
2023-03-11T10:26:45.872Z,13.57
2023-03-11T10:31:55.979Z,13.41
2023-03-11T10:37:04.899Z,13.40
2023-03-11T10:42:16.263Z,15.33
2023-03-11T10:47:23.089Z,14.22
2023-03-11T10:52:28.627Z,14.13
2023-03-11T10:57:36.688Z,14.64
2023-03-11T11:02:43.812Z,15.18
2023-03-11T11:07:50.465Z,14.14
2023-03-11T11:13:00.900Z,13.84
2023-03-11T11:18:07.516Z,14.29
2023-03-11T11:23:27.716Z,14.25
2023-03-11T11:28:35.579Z,14.14
2023-03-11T11:33:50.326Z,14.09
2023-03-11T11:38:55.324Z,14.39
2023-03-11T11:44:02.558Z,15.37
2023-03-11T11:49:17.127Z,15.42
2023-03-11T11:54:29.423Z,14.86
2023-03-11T11:59:37.339Z,14.30
2023-03-11T12:04:51.656Z,14.11
2023-03-11T12:10:21.414Z,13.67
2023-03-11T12:15:32.554Z,12.89
2023-03-11T12:20:39.806Z,12.74
2023-03-11T12:25:54.394Z,12.57
2023-03-11T12:31:03.932Z,12.10
2023-03-11T12:36:10.439Z,12.01
2023-03-11T12:41:30.113Z,12.52
2023-03-11T12:46:52.518Z,13.21
2023-03-11T12:52:06.862Z,13.52
2023-03-11T12:57:32.760Z,13.47
2023-03-11T13:02:52.085Z,13.71
2023-03-11T13:08:02.868Z,13.65
2023-03-11T13:13:39.340Z,13.37
2023-03-11T13:18:44.733Z,12.74
2023-03-11T13:23:50.351Z,12.20
2023-03-11T13:29:18.334Z,11.74
2023-03-11T13:34:31.797Z,11.20
2023-03-11T13:39:46.982Z,11.24
2023-03-11T13:44:52.958Z,11.32
2023-03-11T13:50:02.483Z,11.37
2023-03-11T13:55:19.100Z,11.57
2023-03-11T14:00:25.397Z,11.69
2023-03-11T14:05:33.131Z,11.57
2023-03-11T14:10:38.763Z,11.45
2023-03-11T14:15:49.091Z,11.43
2023-03-11T14:20:54.642Z,11.58
2023-03-11T14:26:07.739Z,11.71
2023-03-11T14:31:24.939Z,11.87
2023-03-11T14:36:29.540Z,11.55
2023-03-11T14:41:35.870Z,10.25
2023-03-11T14:46:44.821Z,9.65
2023-03-11T14:52:00.891Z,9.44
2023-03-11T14:57:24.855Z,9.45
2023-03-11T15:02:44.859Z,9.36
2023-03-11T15:07:55.695Z,9.37
2023-03-11T15:13:18.992Z,9.24
2023-03-11T15:18:27.465Z,9.25
2023-03-11T15:23:34.426Z,9.24
2023-03-11T15:28:41.505Z,9.01
2023-03-11T15:33:45.868Z,8.94
2023-03-11T15:39:07.432Z,8.83
2023-03-11T15:44:29.389Z,8.86
2023-03-11T15:49:33.378Z,9.09
2023-03-11T15:54:38.376Z,9.08
2023-03-11T15:59:46.855Z,8.97
2023-03-11T16:04:53.112Z,9.05
2023-03-11T16:09:57.465Z,9.06
2023-03-11T16:15:04.271Z,9.06
2023-03-11T16:20:09.030Z,9.34
2023-03-11T16:25:22.419Z,9.17
2023-03-11T16:30:29.814Z,9.25
2023-03-11T16:35:35.029Z,9.46
2023-03-11T16:40:40.880Z,9.56
2023-03-11T16:45:46.556Z,9.37
2023-03-11T16:50:51.405Z,9.53
2023-03-11T16:55:56.368Z,9.19
2023-03-11T17:01:01.860Z,9.07
2023-03-11T17:06:07.175Z,8.81
2023-03-11T17:11:16.756Z,8.51
2023-03-11T17:16:22.348Z,7.99
2023-03-11T17:21:26.396Z,7.61
2023-03-11T17:26:33.241Z,7.80
2023-03-11T17:31:39.221Z,7.78
2023-03-11T17:36:44.027Z,7.92
2023-03-11T17:41:48.408Z,7.97
2023-03-11T17:46:54.398Z,7.98
2023-03-11T17:51:59.198Z,8.05
2023-03-11T17:57:03.698Z,7.81
2023-03-11T18:02:09.554Z,7.79
2023-03-11T18:07:13.837Z,7.32
2023-03-11T18:12:18.282Z,7.34
2023-03-11T18:17:25.795Z,7.33
2023-03-11T18:22:30.694Z,7.27
2023-03-11T18:27:37.850Z,6.93
2023-03-11T18:32:45.114Z,6.17
2023-03-11T18:37:49.528Z,6.31
2023-03-11T18:42:53.593Z,6.02
2023-03-11T18:47:58.973Z,6.15
2023-03-11T18:53:03.180Z,5.95
2023-03-11T18:58:09.487Z,6.02
2023-03-11T19:03:17.695Z,6.23
2023-03-11T19:08:22.977Z,6.34
2023-03-11T19:13:40.624Z,5.77
2023-03-11T19:18:50.296Z,5.50
2023-03-11T19:23:55.502Z,5.49
2023-03-11T19:29:00.223Z,5.78
2023-03-11T19:34:07.118Z,5.98
2023-03-11T19:39:11.459Z,6.19
2023-03-11T19:44:15.529Z,6.06
2023-03-11T19:49:22.071Z,5.81
2023-03-11T19:54:28.643Z,5.72
2023-03-11T19:59:33.043Z,5.56
2023-03-11T20:04:41.843Z,5.60
2023-03-11T20:09:47.492Z,5.51
2023-03-11T20:14:53.043Z,5.45
2023-03-11T20:19:58.676Z,5.30
2023-03-11T20:25:05.480Z,5.40
2023-03-11T20:30:11.820Z,5.29
2023-03-11T20:35:18.958Z,5.05
2023-03-11T20:40:26.796Z,5.06
2023-03-11T20:45:31.117Z,4.93
2023-03-11T20:50:37.981Z,5.06
2023-03-11T20:55:42.196Z,5.00
2023-03-11T21:00:46.962Z,5.03
2023-03-11T21:05:52.901Z,4.86
2023-03-11T21:11:01.290Z,5.04
2023-03-11T21:16:07.451Z,5.07
2023-03-11T21:21:17.457Z,4.96
2023-03-11T21:26:21.662Z,5.17
2023-03-11T21:31:29.252Z,5.15
2023-03-11T21:36:36.310Z,5.10
2023-03-11T21:41:40.670Z,5.16
2023-03-11T21:46:45.091Z,5.37
2023-03-11T21:51:50.594Z,5.48
2023-03-11T21:56:55.093Z,5.24
2023-03-11T22:02:01.437Z,5.29
2023-03-11T22:07:08.454Z,5.02
2023-03-11T22:12:12.988Z,5.20
2023-03-11T22:17:17.067Z,5.37
2023-03-11T22:22:22.493Z,5.44
2023-03-11T22:27:27.187Z,4.27
2023-03-11T22:32:31.645Z,4.29
2023-03-11T22:37:37.513Z,4.17
2023-03-11T22:42:41.860Z,4.35
2023-03-11T22:47:46.200Z,3.96
2023-03-11T22:52:51.668Z,3.33
2023-03-11T22:57:55.792Z,3.10
2023-03-11T23:03:00.195Z,2.81
2023-03-11T23:08:06.156Z,2.47
2023-03-11T23:13:10.330Z,2.52
2023-03-11T23:18:15.824Z,2.32
2023-03-11T23:23:21.379Z,2.17
2023-03-11T23:28:25.414Z,2.12
2023-03-11T23:33:29.401Z,2.13
2023-03-11T23:38:35.564Z,2.03
2023-03-11T23:43:40.387Z,1.99
2023-03-11T23:48:44.473Z,1.94
2023-03-11T23:53:50.233Z,1.88
2023-03-11T23:58:54.459Z,1.98
